createdAt,value
2019-03-30T00:00:20.977Z,24.23
2019-03-30T00:02:49.578Z,26.30
2019-03-30T00:05:19.208Z,22.20
2019-03-30T00:07:47.704Z,23.03
2019-03-30T00:10:16.347Z,23.57
2019-03-30T00:12:44.969Z,25.33
2019-03-30T00:15:13.537Z,25.10
2019-03-30T00:17:42.142Z,28.57
2019-03-30T00:20:10.829Z,27.20
2019-03-30T00:22:39.471Z,21.10
2019-03-30T00:25:08.158Z,25.60
2019-03-30T00:27:36.837Z,22.37
2019-03-30T00:30:07.253Z,22.47
2019-03-30T00:32:40.155Z,23.33
2019-03-30T00:35:08.790Z,24.83
2019-03-30T00:37:37.400Z,27.97
2019-03-30T00:40:07.050Z,30.03
2019-03-30T00:42:35.735Z,26.30
2019-03-30T00:45:06.324Z,28.80
2019-03-30T00:47:34.939Z,29.67
2019-03-30T00:50:03.656Z,29.07
2019-03-30T00:52:33.469Z,25.20
2019-03-30T00:55:01.969Z,28.70
2019-03-30T00:57:30.570Z,25.17
2019-03-30T00:59:59.828Z,25.20
2019-03-30T01:02:28.431Z,25.07
2019-03-30T01:04:56.993Z,30.67
2019-03-30T01:07:25.570Z,24.17
2019-03-30T01:09:54.138Z,22.17
2019-03-30T01:12:22.708Z,24.07
2019-03-30T01:14:51.203Z,27.97
2019-03-30T01:17:19.942Z,22.30
2019-03-30T01:20:01.936Z,26.70
2019-03-30T01:22:18.852Z,24.77
2019-03-30T01:24:47.528Z,27.50
2019-03-30T01:27:16.163Z,22.10
2019-03-30T01:29:44.819Z,23.00
2019-03-30T01:32:14.941Z,26.33
2019-03-30T01:34:43.610Z,21.30
2019-03-30T01:37:13.566Z,32.13
2019-03-30T01:39:42.244Z,31.70
2019-03-30T01:42:10.886Z,33.73
2019-03-30T01:44:39.379Z,36.67
2019-03-30T01:47:08.058Z,42.37
2019-03-30T01:49:36.668Z,42.43
2019-03-30T01:52:05.304Z,36.83
2019-03-30T01:54:33.868Z,42.83
2019-03-30T01:57:02.544Z,40.20
2019-03-30T01:59:31.040Z,38.40
2019-03-30T02:01:59.750Z,33.70
2019-03-30T02:04:28.241Z,42.47
2019-03-30T02:06:56.786Z,38.17
2019-03-30T02:09:25.357Z,41.30
2019-03-30T02:11:54.016Z,39.77
2019-03-30T02:14:22.576Z,39.23
2019-03-30T02:16:51.131Z,54.57
2019-03-30T02:19:19.920Z,57.00
2019-03-30T02:21:48.527Z,61.13
2019-03-30T02:24:17.209Z,61.47
2019-03-30T02:26:45.853Z,64.83
2019-03-30T02:29:14.422Z,45.57
2019-03-30T02:31:43.092Z,36.87
2019-03-30T02:34:11.747Z,32.87
2019-03-30T02:36:40.372Z,35.20
2019-03-30T02:39:09.006Z,37.03
2019-03-30T02:41:37.617Z,39.13
2019-03-30T02:44:06.187Z,42.53
2019-03-30T02:46:34.886Z,33.07
2019-03-30T02:49:03.501Z,31.77
2019-03-30T02:51:32.018Z,27.33
2019-03-30T02:54:00.630Z,31.47
2019-03-30T02:56:29.119Z,31.37
2019-03-30T02:58:57.725Z,29.87
2019-03-30T03:01:26.367Z,34.93
2019-03-30T03:03:54.942Z,34.47
2019-03-30T03:06:24.089Z,31.70
2019-03-30T03:08:52.642Z,30.33
2019-03-30T03:11:21.321Z,30.63
2019-03-30T03:13:49.960Z,32.43
2019-03-30T03:16:18.525Z,31.93
2019-03-30T03:18:47.103Z,30.97
2019-03-30T03:21:15.711Z,33.80
2019-03-30T03:23:44.271Z,37.40
2019-03-30T03:26:12.876Z,40.20
2019-03-30T03:28:41.441Z,33.50
2019-03-30T03:31:10.134Z,39.37
2019-03-30T03:33:38.634Z,35.03
2019-03-30T03:36:07.265Z,35.93
2019-03-30T03:38:35.939Z,32.07
2019-03-30T03:41:04.636Z,33.97
2019-03-30T03:43:33.313Z,34.70
2019-03-30T03:46:01.921Z,32.83
2019-03-30T03:48:30.411Z,33.10
2019-03-30T03:51:02.021Z,35.17
2019-03-30T03:53:31.275Z,33.03
2019-03-30T03:56:01.941Z,31.47
2019-03-30T03:58:33.776Z,30.07
2019-03-30T04:01:02.841Z,38.80
2019-03-30T04:03:33.344Z,37.73
2019-03-30T04:06:04.894Z,44.43
2019-03-30T04:08:33.568Z,42.97
2019-03-30T04:11:03.691Z,39.43
2019-03-30T04:13:32.524Z,41.77
2019-03-30T04:16:01.172Z,44.20
2019-03-30T04:18:29.797Z,53.63
2019-03-30T04:20:58.378Z,44.77
2019-03-30T04:23:26.946Z,43.20
2019-03-30T04:25:55.634Z,43.53
2019-03-30T04:28:24.249Z,46.40
2019-03-30T04:30:52.831Z,45.23
2019-03-30T04:33:21.413Z,36.57
2019-03-30T04:35:49.967Z,32.63
2019-03-30T04:38:18.662Z,39.57
2019-03-30T04:40:47.292Z,39.87
2019-03-30T04:43:15.911Z,39.13
2019-03-30T04:45:44.505Z,39.27
2019-03-30T04:48:14.655Z,40.57
2019-03-30T04:50:43.296Z,46.40
2019-03-30T04:53:11.867Z,39.70
2019-03-30T04:55:40.563Z,43.73
2019-03-30T04:58:09.658Z,39.97
2019-03-30T05:00:38.271Z,34.50
2019-03-30T05:03:06.951Z,42.73
2019-03-30T05:05:35.579Z,47.57
2019-03-30T05:08:04.214Z,38.10
2019-03-30T05:10:32.835Z,31.40
2019-03-30T05:13:01.443Z,41.93
2019-03-30T05:15:30.056Z,35.40
2019-03-30T05:17:58.624Z,36.07
2019-03-30T05:20:27.303Z,39.00
2019-03-30T05:22:55.927Z,37.10
2019-03-30T05:25:24.535Z,39.83
2019-03-30T05:27:53.097Z,35.87
2019-03-30T05:30:21.785Z,39.80
2019-03-30T05:33:04.662Z,34.30
2019-03-30T05:35:20.822Z,32.70
2019-03-30T05:37:49.383Z,32.83
2019-03-30T05:40:18.060Z,32.43
2019-03-30T05:42:46.673Z,32.43
2019-03-30T05:45:15.309Z,33.07
2019-03-30T05:47:43.917Z,29.37
2019-03-30T05:50:13.048Z,24.20
2019-03-30T05:52:41.723Z,30.23
2019-03-30T05:55:10.371Z,27.47
2019-03-30T05:57:38.997Z,27.40
2019-03-30T06:00:09.307Z,31.53
2019-03-30T06:02:37.981Z,31.63
2019-03-30T06:05:06.916Z,31.73
2019-03-30T06:07:35.512Z,35.23
2019-03-30T06:10:05.755Z,32.97
2019-03-30T06:12:37.071Z,37.07
2019-03-30T06:15:07.774Z,40.93
2019-03-30T06:17:36.316Z,49.37
2019-03-30T06:20:12.016Z,33.80
2019-03-30T06:22:40.940Z,40.17
2019-03-30T06:25:09.823Z,28.73
2019-03-30T06:27:38.442Z,27.17
2019-03-30T06:30:18.840Z,26.53
2019-03-30T06:32:47.524Z,25.40
2019-03-30T06:35:16.188Z,23.77
2019-03-30T06:37:44.820Z,21.90
2019-03-30T06:40:13.928Z,23.23
2019-03-30T06:42:42.601Z,24.07
2019-03-30T06:45:11.334Z,23.37
2019-03-30T06:47:41.157Z,20.10
2019-03-30T06:50:15.959Z,28.53
2019-03-30T06:52:56.754Z,22.13
2019-03-30T06:55:15.087Z,24.20
2019-03-30T06:57:43.715Z,21.50
2019-03-30T07:00:12.617Z,22.57
2019-03-30T07:02:42.716Z,24.37
2019-03-30T07:05:11.353Z,25.43
2019-03-30T07:07:43.861Z,22.63
2019-03-30T07:10:12.491Z,29.07
2019-03-30T07:12:41.875Z,24.67
2019-03-30T07:15:10.908Z,24.30
2019-03-30T07:17:45.250Z,25.80
2019-03-30T07:20:19.765Z,31.17
2019-03-30T07:22:51.153Z,22.43
2019-03-30T07:25:18.692Z,25.63
2019-03-30T07:27:47.184Z,23.90
2019-03-30T07:30:15.885Z,26.50
2019-03-30T07:32:44.518Z,26.13
2019-03-30T07:35:13.247Z,22.90
2019-03-30T07:37:45.594Z,28.70
2019-03-30T07:40:14.284Z,22.73
2019-03-30T07:42:42.957Z,23.97
2019-03-30T07:45:11.591Z,22.70
2019-03-30T07:47:40.211Z,21.77
2019-03-30T07:50:10.001Z,21.23
2019-03-30T07:52:38.501Z,24.97
2019-03-30T07:55:07.811Z,26.83
2019-03-30T07:57:36.425Z,22.83
2019-03-30T08:00:08.551Z,26.57
2019-03-30T08:02:37.189Z,22.67
2019-03-30T08:05:07.348Z,21.00
2019-03-30T08:07:36.019Z,21.80
2019-03-30T08:10:06.168Z,24.83
2019-03-30T08:12:34.878Z,23.40
2019-03-30T08:15:04.450Z,20.03
2019-03-30T08:17:33.081Z,23.33
2019-03-30T08:20:01.757Z,19.47
2019-03-30T08:22:30.259Z,24.40
2019-03-30T08:24:58.868Z,21.80
2019-03-30T08:27:27.433Z,25.13
2019-03-30T08:29:56.076Z,26.00
2019-03-30T08:32:24.778Z,21.63
2019-03-30T08:34:53.298Z,25.73
2019-03-30T08:37:22.079Z,21.73
2019-03-30T08:39:50.638Z,25.57
2019-03-30T08:42:20.051Z,22.77
2019-03-30T08:44:48.772Z,25.47
2019-03-30T08:47:17.416Z,20.27
2019-03-30T08:49:46.100Z,20.73
2019-03-30T08:52:14.955Z,22.07
2019-03-30T08:54:43.628Z,20.30
2019-03-30T08:57:16.278Z,25.67
2019-03-30T08:59:45.070Z,23.23
2019-03-30T09:02:13.699Z,21.60
2019-03-30T09:04:42.261Z,17.03
2019-03-30T09:07:10.939Z,20.83
2019-03-30T09:09:39.580Z,20.27
2019-03-30T09:12:08.250Z,17.47
2019-03-30T09:14:36.806Z,18.57
2019-03-30T09:17:05.410Z,21.97
2019-03-30T09:19:33.975Z,17.53
2019-03-30T09:22:02.589Z,14.63
2019-03-30T09:24:31.151Z,24.00
2019-03-30T09:26:59.692Z,16.83
2019-03-30T09:29:28.355Z,21.53
2019-03-30T09:31:56.917Z,19.10
2019-03-30T09:34:25.612Z,19.87
2019-03-30T09:36:54.289Z,40.27
2019-03-30T09:39:23.015Z,17.80
2019-03-30T09:41:52.573Z,21.77
2019-03-30T09:44:21.301Z,17.67
2019-03-30T09:46:49.939Z,16.73
2019-03-30T09:49:18.533Z,23.30
2019-03-30T09:51:47.139Z,80.53
2019-03-30T09:54:23.509Z,15.53
2019-03-30T09:56:45.919Z,17.13
2019-03-30T09:59:14.529Z,24.10
2019-03-30T10:01:43.154Z,19.80
2019-03-30T10:04:11.796Z,16.60
2019-03-30T10:06:40.397Z,20.63
2019-03-30T10:09:09.066Z,16.07
2019-03-30T10:11:37.628Z,15.30
2019-03-30T10:14:06.303Z,14.83
2019-03-30T10:16:34.864Z,15.97
2019-03-30T10:19:03.492Z,16.63
2019-03-30T10:21:32.100Z,14.97
2019-03-30T10:24:00.729Z,21.27
2019-03-30T10:26:29.326Z,15.03
2019-03-30T10:28:57.965Z,44.20
2019-03-30T10:31:26.708Z,17.00
2019-03-30T10:33:55.278Z,192.00
2019-03-30T10:36:24.019Z,17.33
2019-03-30T10:38:52.646Z,14.20
2019-03-30T10:41:21.242Z,14.40
2019-03-30T10:43:49.887Z,13.53
2019-03-30T10:46:18.485Z,10.90
2019-03-30T10:48:47.129Z,12.70
2019-03-30T10:51:15.874Z,14.70
2019-03-30T10:53:44.580Z,57.83
2019-03-30T10:56:13.182Z,20.70
2019-03-30T10:58:41.786Z,14.93
2019-03-30T11:01:10.410Z,14.03
2019-03-30T11:03:39.016Z,15.50
2019-03-30T11:06:07.725Z,16.60
2019-03-30T11:08:36.360Z,13.30
2019-03-30T11:11:05.030Z,12.83
2019-03-30T11:13:33.711Z,14.73
2019-03-30T11:16:02.338Z,15.33
2019-03-30T11:18:31.095Z,13.67
2019-03-30T11:20:59.721Z,15.80
2019-03-30T11:23:28.468Z,12.33
2019-03-30T11:25:57.026Z,10.43
2019-03-30T11:28:25.695Z,12.13
2019-03-30T11:30:54.393Z,13.37
2019-03-30T11:33:23.095Z,15.00
2019-03-30T11:35:51.808Z,14.30
2019-03-30T11:38:20.441Z,11.25
2019-03-30T11:40:49.161Z,16.90
2019-03-30T11:43:17.810Z,15.32
2019-03-30T11:45:46.555Z,14.25
2019-03-30T11:48:15.356Z,19.43
2019-03-30T11:50:44.108Z,14.53
2019-03-30T11:53:12.807Z,12.37
2019-03-30T11:55:41.552Z,16.52
2019-03-30T11:58:10.181Z,12.65
2019-03-30T12:00:41.694Z,11.22
2019-03-30T12:03:10.403Z,13.13
2019-03-30T12:05:39.148Z,13.25
2019-03-30T12:08:07.944Z,12.88
2019-03-30T12:10:36.755Z,13.53
2019-03-30T12:13:05.476Z,10.90
2019-03-30T12:15:34.275Z,14.10
2019-03-30T12:18:03.024Z,11.43
2019-03-30T12:20:31.753Z,11.93
2019-03-30T12:23:00.451Z,12.45
2019-03-30T12:25:35.295Z,11.95
2019-03-30T12:27:59.815Z,17.25
2019-03-30T12:30:28.555Z,11.15
2019-03-30T12:32:57.276Z,12.20
2019-03-30T12:35:26.006Z,12.35
2019-03-30T12:37:54.713Z,14.78
2019-03-30T12:40:23.431Z,21.33
2019-03-30T12:42:52.131Z,10.88
2019-03-30T12:45:20.805Z,11.25
2019-03-30T12:47:49.508Z,9.85
2019-03-30T12:50:18.178Z,12.45
2019-03-30T12:52:46.874Z,15.25
2019-03-30T12:55:15.615Z,12.82
2019-03-30T12:57:44.320Z,13.32
2019-03-30T13:00:13.675Z,14.68
2019-03-30T13:02:42.386Z,13.78
2019-03-30T13:05:11.119Z,11.28
2019-03-30T13:07:39.823Z,11.78
2019-03-30T13:10:09.085Z,11.90
2019-03-30T13:12:37.831Z,12.55
2019-03-30T13:15:08.234Z,13.43
2019-03-30T13:17:36.977Z,10.58
2019-03-30T13:20:07.079Z,11.55
2019-03-30T13:22:35.779Z,14.53
2019-03-30T13:25:05.595Z,12.13
2019-03-30T13:27:34.592Z,11.00
2019-03-30T13:30:04.496Z,11.25
2019-03-30T13:32:33.197Z,13.35
2019-03-30T13:35:01.937Z,10.53
2019-03-30T13:37:30.639Z,16.85
2019-03-30T13:39:59.339Z,11.18
2019-03-30T13:42:28.048Z,11.48
2019-03-30T13:44:56.740Z,9.88
2019-03-30T13:47:25.462Z,18.32
2019-03-30T13:49:54.165Z,14.15
2019-03-30T13:52:22.902Z,15.50
2019-03-30T13:54:51.608Z,11.33
2019-03-30T13:57:20.351Z,13.80
2019-03-30T13:59:49.049Z,11.12
2019-03-30T14:02:17.875Z,15.43
2019-03-30T14:04:46.586Z,15.50
2019-03-30T14:07:15.326Z,11.00
2019-03-30T14:09:44.044Z,11.20
2019-03-30T14:12:12.742Z,11.53
2019-03-30T14:14:41.481Z,10.65
2019-03-30T14:17:10.172Z,10.08
2019-03-30T14:19:38.918Z,11.85
2019-03-30T14:22:07.628Z,12.30
2019-03-30T14:24:36.319Z,10.23
2019-03-30T14:27:05.055Z,13.48
2019-03-30T14:29:33.772Z,12.40
2019-03-30T14:32:02.473Z,10.70
2019-03-30T14:34:31.188Z,14.05
2019-03-30T14:36:59.929Z,12.68
2019-03-30T14:39:28.624Z,11.90
2019-03-30T14:41:57.356Z,20.75
2019-03-30T14:44:26.165Z,10.78
2019-03-30T14:46:55.057Z,13.58
2019-03-30T14:49:23.760Z,11.18
2019-03-30T14:51:52.454Z,10.45
2019-03-30T14:54:21.161Z,13.83
2019-03-30T14:56:49.860Z,16.83
2019-03-30T14:59:18.552Z,11.55
2019-03-30T15:01:47.446Z,10.23
2019-03-30T15:04:16.296Z,11.48
2019-03-30T15:06:44.998Z,11.53
2019-03-30T15:09:13.921Z,11.35
2019-03-30T15:11:45.886Z,11.27
2019-03-30T15:14:14.832Z,12.85
2019-03-30T15:16:43.838Z,16.57
2019-03-30T15:19:12.799Z,10.95
2019-03-30T15:21:41.787Z,11.70
2019-03-30T15:24:10.823Z,11.33
2019-03-30T15:26:39.624Z,12.87
2019-03-30T15:29:08.363Z,24.87
2019-03-30T15:31:37.357Z,13.33
2019-03-30T15:34:06.367Z,13.50
2019-03-30T15:36:35.404Z,10.27
2019-03-30T15:39:05.540Z,11.00
2019-03-30T15:41:34.384Z,16.23
2019-03-30T15:44:03.287Z,14.47
2019-03-30T15:46:32.071Z,13.47
2019-03-30T15:49:00.814Z,13.83
2019-03-30T15:51:29.821Z,11.83
2019-03-30T15:53:58.827Z,24.00
2019-03-30T15:56:27.723Z,11.67
2019-03-30T15:58:56.426Z,15.07
2019-03-30T16:01:25.221Z,42.10
2019-03-30T16:03:54.172Z,13.10
2019-03-30T16:06:22.965Z,13.27
2019-03-30T16:08:51.723Z,14.93
2019-03-30T16:11:22.029Z,18.70
2019-03-30T16:13:50.858Z,14.40
2019-03-30T16:16:19.637Z,14.33
2019-03-30T16:18:48.345Z,18.93
2019-03-30T16:21:17.389Z,14.60
2019-03-30T16:23:46.390Z,27.73
2019-03-30T16:26:15.544Z,17.50
2019-03-30T16:28:44.584Z,19.13
2019-03-30T16:31:13.579Z,16.23
2019-03-30T16:33:42.702Z,21.03
2019-03-30T16:36:11.701Z,21.57
2019-03-30T16:38:40.713Z,22.50
2019-03-30T16:41:09.766Z,25.77
2019-03-30T16:43:38.848Z,28.40
2019-03-30T16:46:07.852Z,20.83
2019-03-30T16:48:36.857Z,21.20
2019-03-30T16:51:05.964Z,19.97
2019-03-30T16:53:35.013Z,20.73
2019-03-30T16:56:04.061Z,22.83
2019-03-30T16:58:33.075Z,20.40
2019-03-30T17:01:02.179Z,22.43
2019-03-30T17:03:31.220Z,20.67
2019-03-30T17:06:00.219Z,26.80
2019-03-30T17:08:29.265Z,32.50
2019-03-30T17:10:58.262Z,31.80
2019-03-30T17:13:27.310Z,27.70
2019-03-30T17:15:58.478Z,31.10
2019-03-30T17:18:27.987Z,33.97
2019-03-30T17:20:57.028Z,33.83
2019-03-30T17:23:32.160Z,69.33
2019-03-30T17:26:01.203Z,122.37
2019-03-30T17:28:30.208Z,144.57
2019-03-30T17:30:59.259Z,49.17
2019-03-30T17:33:29.302Z,30.70
2019-03-30T17:35:58.314Z,35.97
2019-03-30T17:38:27.376Z,34.03
2019-03-30T17:40:56.378Z,41.83
2019-03-30T17:43:25.387Z,42.87
2019-03-30T17:45:54.404Z,54.23
2019-03-30T17:48:23.415Z,103.53
2019-03-30T17:50:52.418Z,71.03
2019-03-30T17:53:21.466Z,71.23
2019-03-30T17:55:50.498Z,108.47
2019-03-30T17:58:19.556Z,127.00
2019-03-30T18:00:48.574Z,138.27
2019-03-30T18:03:17.594Z,135.07
2019-03-30T18:05:47.530Z,130.17
2019-03-30T18:08:16.559Z,174.07
2019-03-30T18:10:45.601Z,121.63
2019-03-30T18:13:14.667Z,130.30
2019-03-30T18:15:43.795Z,116.77
2019-03-30T18:18:12.953Z,112.03
2019-03-30T18:20:41.975Z,105.13
2019-03-30T18:23:11.030Z,74.33
2019-03-30T18:25:40.078Z,60.57
2019-03-30T18:28:09.103Z,84.83
2019-03-30T18:30:39.917Z,84.40
2019-03-30T18:33:09.144Z,58.10
2019-03-30T18:35:42.998Z,42.03
2019-03-30T18:38:13.115Z,33.80
2019-03-30T18:40:42.713Z,31.83
2019-03-30T18:43:11.955Z,30.40
2019-03-30T18:45:41.084Z,31.40
2019-03-30T18:48:14.523Z,25.90
2019-03-30T18:50:44.110Z,23.83
2019-03-30T18:53:17.536Z,27.57
2019-03-30T18:55:46.667Z,22.80
2019-03-30T18:58:15.738Z,22.00
2019-03-30T19:00:44.887Z,23.40
2019-03-30T19:03:14.004Z,29.60
2019-03-30T19:05:43.023Z,23.07
2019-03-30T19:08:12.141Z,23.37
2019-03-30T19:10:41.162Z,19.20
2019-03-30T19:13:10.230Z,20.27
2019-03-30T19:15:39.342Z,25.67
2019-03-30T19:18:08.388Z,27.00
2019-03-30T19:20:37.442Z,29.73
2019-03-30T19:23:06.520Z,34.07
2019-03-30T19:25:35.625Z,22.53
2019-03-30T19:28:04.881Z,22.43
2019-03-30T19:30:33.943Z,21.20
2019-03-30T19:33:03.054Z,19.43
2019-03-30T19:35:32.175Z,18.43
2019-03-30T19:38:01.331Z,19.73
2019-03-30T19:40:30.442Z,23.47
2019-03-30T19:43:00.835Z,21.57
2019-03-30T19:45:30.069Z,21.53
2019-03-30T19:47:59.059Z,23.57
2019-03-30T19:50:28.137Z,26.60
2019-03-30T19:52:57.157Z,21.23
2019-03-30T19:55:26.199Z,28.30
2019-03-30T19:57:55.202Z,33.07
2019-03-30T20:00:27.469Z,38.17
2019-03-30T20:02:56.524Z,31.00
2019-03-30T20:05:28.985Z,26.23
2019-03-30T20:08:11.444Z,31.17
2019-03-30T20:10:28.845Z,38.07
2019-03-30T20:12:57.886Z,45.13
2019-03-30T20:15:26.990Z,45.87
2019-03-30T20:17:56.108Z,44.97
2019-03-30T20:20:25.138Z,39.50
2019-03-30T20:22:54.146Z,40.27
2019-03-30T20:25:26.315Z,41.17
2019-03-30T20:27:55.312Z,42.03
2019-03-30T20:30:24.663Z,55.53
2019-03-30T20:32:53.655Z,54.30
2019-03-30T20:35:22.657Z,53.63
2019-03-30T20:37:51.700Z,54.10
2019-03-30T20:40:24.006Z,48.20
2019-03-30T20:42:53.050Z,45.30
2019-03-30T20:45:22.156Z,46.97
2019-03-30T20:47:51.192Z,39.67
2019-03-30T20:50:20.315Z,44.10
2019-03-30T20:52:49.328Z,60.17
2019-03-30T20:55:18.237Z,50.80
2019-03-30T20:57:47.141Z,55.10
2019-03-30T21:00:17.597Z,59.00
2019-03-30T21:02:46.295Z,53.47
2019-03-30T21:05:15.351Z,53.23
2019-03-30T21:07:44.120Z,50.90
2019-03-30T21:10:12.921Z,63.13
2019-03-30T21:12:41.715Z,69.37
2019-03-30T21:15:12.008Z,69.63
2019-03-30T21:17:40.710Z,63.07
2019-03-30T21:20:10.025Z,70.03
2019-03-30T21:22:38.841Z,67.67
2019-03-30T21:25:07.646Z,66.57
2019-03-30T21:27:36.456Z,68.00
2019-03-30T21:30:09.990Z,73.97
2019-03-30T21:32:38.924Z,73.03
2019-03-30T21:35:08.420Z,76.07
2019-03-30T21:37:37.171Z,80.27
2019-03-30T21:40:07.086Z,75.70
2019-03-30T21:42:35.828Z,83.37
2019-03-30T21:45:06.337Z,86.83
2019-03-30T21:47:35.087Z,91.77
2019-03-30T21:50:06.674Z,93.47
2019-03-30T21:52:35.354Z,81.23
2019-03-30T21:55:05.827Z,87.17
2019-03-30T21:57:34.451Z,91.60
2019-03-30T22:00:09.906Z,79.80
2019-03-30T22:02:33.577Z,89.07
2019-03-30T22:05:02.129Z,81.67
2019-03-30T22:07:31.191Z,89.30
2019-03-30T22:10:00.009Z,134.37
2019-03-30T22:12:32.633Z,221.00
2019-03-30T22:15:01.424Z,166.63
2019-03-30T22:17:29.919Z,139.47
2019-03-30T22:19:58.608Z,119.40
2019-03-30T22:22:27.291Z,99.43
2019-03-30T22:24:55.857Z,93.13
2019-03-30T22:27:24.542Z,88.90
2019-03-30T22:29:53.212Z,85.13
2019-03-30T22:32:21.833Z,87.40
2019-03-30T22:34:50.400Z,114.90
2019-03-30T22:37:19.012Z,103.73
2019-03-30T22:39:47.707Z,120.00
2019-03-30T22:42:16.336Z,116.80
2019-03-30T22:44:44.835Z,103.30
2019-03-30T22:47:14.758Z,107.00
2019-03-30T22:49:43.455Z,105.20
2019-03-30T22:52:12.096Z,107.63
2019-03-30T22:54:40.664Z,108.17
2019-03-30T22:57:09.241Z,111.10
2019-03-30T22:59:37.879Z,118.73
2019-03-30T23:02:06.621Z,133.07
2019-03-30T23:04:35.173Z,124.00
2019-03-30T23:07:03.885Z,121.43
2019-03-30T23:09:32.457Z,119.30
2019-03-30T23:12:01.220Z,123.47
2019-03-30T23:14:31.105Z,117.33
2019-03-30T23:16:59.685Z,120.70
2019-03-30T23:19:28.342Z,120.23
2019-03-30T23:22:01.285Z,109.13
2019-03-30T23:24:29.779Z,126.27
2019-03-30T23:26:58.466Z,118.67
2019-03-30T23:29:27.065Z,120.83
2019-03-30T23:31:55.696Z,117.63
2019-03-30T23:34:24.303Z,124.67
2019-03-30T23:36:52.883Z,110.33
2019-03-30T23:39:21.514Z,132.00
2019-03-30T23:41:50.117Z,130.23
2019-03-30T23:44:18.763Z,140.00
2019-03-30T23:46:47.409Z,141.00
2019-03-30T23:49:15.986Z,129.47
2019-03-30T23:51:46.107Z,130.10
2019-03-30T23:54:16.545Z,134.17
2019-03-30T23:56:45.182Z,142.80
2019-03-30T23:59:13.763Z,129.10
